createdAt,value
2023-03-06T00:01:09.104Z,8.32
2023-03-06T00:03:39.715Z,3.92
2023-03-06T00:06:07.331Z,3.97
2023-03-06T00:08:35.362Z,4.95
2023-03-06T00:11:02.467Z,3.92
2023-03-06T00:13:31.197Z,3.30
2023-03-06T00:16:01.324Z,2.53
2023-03-06T00:18:30.589Z,3.08
2023-03-06T00:21:00.949Z,3.25
2023-03-06T00:23:28.060Z,5.32
2023-03-06T00:25:55.186Z,7.10
2023-03-06T00:28:24.631Z,3.72
2023-03-06T00:30:51.983Z,3.35
2023-03-06T00:33:19.165Z,4.95
2023-03-06T00:35:48.545Z,4.03
2023-03-06T00:38:15.826Z,4.72
2023-03-06T00:40:43.248Z,5.47
2023-03-06T00:43:10.434Z,7.40
2023-03-06T00:45:38.746Z,4.32
2023-03-06T00:48:05.960Z,4.60
2023-03-06T00:50:34.067Z,15.70
2023-03-06T00:53:01.205Z,3.72
2023-03-06T00:55:29.544Z,4.38
2023-03-06T00:57:56.893Z,4.35
2023-03-06T01:00:24.417Z,6.47
2023-03-06T01:02:53.700Z,4.00
2023-03-06T01:05:22.753Z,6.57
2023-03-06T01:07:50.058Z,3.88
2023-03-06T01:10:17.486Z,4.18
2023-03-06T01:12:54.786Z,2.10
2023-03-06T01:15:22.700Z,4.47
2023-03-06T01:17:53.736Z,11.85
2023-03-06T01:20:22.381Z,7.13
2023-03-06T01:22:49.678Z,5.05
2023-03-06T01:25:18.266Z,4.05
2023-03-06T01:27:45.866Z,4.75
2023-03-06T01:30:13.882Z,3.33
2023-03-06T01:32:42.669Z,7.05
2023-03-06T01:35:10.780Z,6.45
2023-03-06T01:37:40.027Z,6.68
2023-03-06T01:40:08.929Z,5.47
2023-03-06T01:42:37.374Z,6.30
2023-03-06T01:45:13.655Z,8.18
2023-03-06T01:47:40.770Z,5.70
2023-03-06T01:50:11.695Z,5.88
2023-03-06T01:52:48.594Z,5.97
2023-03-06T01:55:21.222Z,5.07
2023-03-06T01:57:59.649Z,9.05
2023-03-06T02:00:29.152Z,16.70
2023-03-06T02:03:28.475Z,8.20
2023-03-06T02:05:55.952Z,5.25
2023-03-06T02:08:24.639Z,5.22
2023-03-06T02:11:25.686Z,6.85
2023-03-06T02:13:55.101Z,7.68
2023-03-06T02:16:26.568Z,10.60
2023-03-06T02:18:54.301Z,6.85
2023-03-06T02:21:30.810Z,8.35
2023-03-06T02:24:04.545Z,7.60
2023-03-06T02:26:34.600Z,5.65
2023-03-06T02:29:01.973Z,4.88
2023-03-06T02:31:31.834Z,9.88
2023-03-06T02:34:15.256Z,9.40
2023-03-06T02:36:55.826Z,7.28
2023-03-06T02:39:28.138Z,8.95
2023-03-06T02:41:55.284Z,4.43
2023-03-06T02:44:23.873Z,8.38
2023-03-06T02:46:50.962Z,8.35
2023-03-06T02:49:18.115Z,12.40
2023-03-06T02:51:45.271Z,6.57
2023-03-06T02:54:18.368Z,7.93
2023-03-06T02:56:49.495Z,7.97
2023-03-06T02:59:17.003Z,7.25
2023-03-06T03:01:45.483Z,6.88
2023-03-06T03:04:13.527Z,9.00
2023-03-06T03:06:41.344Z,17.85
2023-03-06T03:09:09.141Z,9.10
2023-03-06T03:11:37.938Z,6.32
2023-03-06T03:14:05.339Z,9.10
2023-03-06T03:16:39.085Z,8.20
2023-03-06T03:19:10.385Z,5.90
2023-03-06T03:21:40.993Z,10.82
2023-03-06T03:24:08.634Z,6.38
2023-03-06T03:26:36.394Z,8.65
2023-03-06T03:29:12.060Z,6.18
2023-03-06T03:31:40.525Z,11.10
2023-03-06T03:34:08.775Z,6.35
2023-03-06T03:36:39.560Z,6.55
2023-03-06T03:39:09.257Z,5.10
2023-03-06T03:41:38.026Z,8.43
2023-03-06T03:44:08.995Z,6.18
2023-03-06T03:46:36.998Z,4.93
2023-03-06T03:49:09.774Z,11.70
2023-03-06T03:51:39.268Z,10.25
2023-03-06T03:54:07.251Z,11.55
2023-03-06T03:56:44.527Z,8.85
2023-03-06T03:59:21.147Z,8.07
2023-03-06T04:01:59.679Z,9.32
2023-03-06T04:04:27.739Z,6.65
2023-03-06T04:06:54.916Z,11.38
2023-03-06T04:09:22.393Z,5.32
2023-03-06T04:11:49.624Z,10.90
2023-03-06T04:14:17.258Z,8.70
2023-03-06T04:16:44.440Z,9.88
2023-03-06T04:19:11.837Z,8.75
2023-03-06T04:21:40.370Z,8.15
2023-03-06T04:24:09.134Z,8.50
2023-03-06T04:26:36.918Z,6.45
2023-03-06T04:29:04.941Z,10.77
2023-03-06T04:31:32.318Z,6.68
2023-03-06T04:33:59.449Z,9.00
2023-03-06T04:36:34.708Z,5.25
2023-03-06T04:39:08.546Z,6.50
2023-03-06T04:41:35.727Z,18.27
2023-03-06T04:44:03.080Z,7.13
2023-03-06T04:46:30.243Z,7.05
2023-03-06T04:48:58.382Z,8.10
2023-03-06T04:53:52.822Z,11.80
2023-03-06T04:56:22.080Z,7.45
2023-03-06T04:58:50.693Z,13.80
2023-03-06T05:01:18.673Z,4.63
2023-03-06T05:03:48.291Z,12.68
2023-03-06T05:06:24.933Z,9.85
2023-03-06T05:08:52.026Z,8.13
2023-03-06T05:11:22.746Z,6.90
2023-03-06T05:13:50.567Z,8.45
2023-03-06T05:16:18.341Z,7.90
2023-03-06T05:21:14.430Z,7.25
2023-03-06T05:23:42.123Z,10.60
2023-03-06T05:26:11.771Z,12.45
2023-03-06T05:28:39.411Z,9.15
2023-03-06T05:31:07.783Z,12.25
2023-03-06T05:33:35.836Z,7.07
2023-03-06T05:36:03.797Z,16.00
2023-03-06T05:38:32.128Z,13.48
2023-03-06T05:40:59.484Z,7.88
2023-03-06T05:43:26.778Z,8.73
2023-03-06T05:46:04.113Z,13.50
2023-03-06T05:48:35.751Z,10.43
2023-03-06T05:51:04.690Z,10.73
2023-03-06T05:53:34.427Z,10.43
2023-03-06T05:56:04.569Z,16.52
2023-03-06T05:58:36.138Z,11.30
2023-03-06T06:01:16.007Z,8.35
2023-03-06T06:03:44.527Z,11.57
2023-03-06T06:06:13.699Z,14.02
2023-03-06T06:08:41.432Z,12.80
2023-03-06T06:11:10.180Z,11.80
2023-03-06T06:13:38.488Z,14.70
2023-03-06T06:16:15.747Z,25.15
2023-03-06T06:18:43.976Z,10.25
2023-03-06T06:21:13.502Z,14.23
2023-03-06T06:23:41.981Z,8.20
2023-03-06T06:26:10.375Z,10.57
2023-03-06T06:28:38.506Z,10.07
2023-03-06T06:31:14.262Z,11.45
2023-03-06T06:33:41.681Z,8.07
2023-03-06T06:36:17.240Z,10.70
2023-03-06T06:38:44.374Z,8.57
2023-03-06T06:41:38.997Z,10.32
2023-03-06T06:43:59.258Z,19.15
2023-03-06T06:47:10.825Z,11.45
2023-03-06T06:49:15.246Z,9.65
2023-03-06T06:51:42.440Z,12.30
2023-03-06T06:54:10.760Z,11.77
2023-03-06T06:56:38.167Z,12.32
2023-03-06T06:59:16.069Z,13.20
2023-03-06T07:01:44.501Z,10.90
2023-03-06T07:04:13.286Z,9.30
2023-03-06T07:06:41.343Z,12.20
2023-03-06T07:11:38.246Z,14.02
2023-03-06T07:14:05.676Z,11.32
2023-03-06T07:16:33.127Z,7.93
2023-03-06T07:19:00.257Z,8.10
2023-03-06T07:21:27.772Z,11.60
2023-03-06T07:23:59.500Z,12.32
2023-03-06T07:26:42.953Z,14.48
2023-03-06T07:29:12.362Z,11.27
2023-03-06T07:31:50.334Z,11.30
2023-03-06T07:34:17.364Z,9.10
2023-03-06T07:36:44.403Z,9.68
2023-03-06T07:39:11.510Z,13.88
2023-03-06T07:41:38.658Z,12.38
2023-03-06T07:44:05.753Z,9.90
2023-03-06T07:46:32.863Z,9.40
2023-03-06T07:48:59.991Z,12.50
2023-03-06T07:51:27.106Z,12.70
2023-03-06T07:53:54.309Z,13.35
2023-03-06T07:56:21.538Z,11.07
2023-03-06T07:58:48.727Z,10.38
2023-03-06T08:01:19.850Z,8.02
2023-03-06T08:03:49.880Z,13.82
2023-03-06T08:06:22.803Z,10.43
2023-03-06T08:08:51.418Z,12.95
2023-03-06T08:11:21.007Z,13.07
2023-03-06T08:13:48.894Z,11.32
2023-03-06T08:18:46.227Z,11.50
2023-03-06T08:21:16.120Z,11.15
2023-03-06T08:23:43.918Z,11.15
2023-03-06T08:28:39.730Z,8.57
2023-03-06T08:31:19.695Z,9.05
2023-03-06T08:33:47.141Z,9.85
2023-03-06T08:36:14.218Z,12.73
2023-03-06T08:38:41.438Z,13.25
2023-03-06T08:41:08.658Z,13.20
2023-03-06T08:43:36.054Z,9.30
2023-03-06T08:46:03.366Z,10.95
2023-03-06T08:48:33.730Z,12.30
2023-03-06T08:51:08.077Z,16.50
2023-03-06T08:53:46.663Z,12.38
2023-03-06T08:56:18.263Z,14.73
2023-03-06T08:58:45.975Z,12.88
2023-03-06T09:01:19.842Z,9.00
2023-03-06T09:03:47.585Z,11.82
2023-03-06T09:06:15.495Z,12.27
2023-03-06T09:08:53.356Z,10.05
2023-03-06T09:13:49.294Z,12.93
2023-03-06T09:16:16.698Z,10.18
2023-03-06T09:18:52.929Z,12.93
2023-03-06T09:21:21.909Z,12.65
2023-03-06T09:23:49.559Z,15.30
2023-03-06T09:26:16.815Z,19.55
2023-03-06T09:28:43.963Z,15.27
2023-03-06T09:31:14.062Z,18.23
2023-03-06T09:33:41.446Z,13.35
2023-03-06T09:36:13.708Z,20.95
2023-03-06T09:38:41.086Z,11.65
2023-03-06T09:41:26.493Z,14.85
2023-03-06T09:44:04.783Z,12.60
2023-03-06T09:47:01.132Z,13.90
2023-03-06T09:50:10.315Z,14.90
2023-03-06T09:52:46.482Z,17.75
2023-03-06T09:55:20.446Z,12.70
2023-03-06T10:01:19.196Z,10.88
2023-03-06T10:04:12.671Z,14.27
2023-03-06T10:06:53.638Z,10.38
2023-03-06T10:09:28.462Z,12.52
2023-03-06T10:12:02.565Z,14.68
2023-03-06T10:14:38.749Z,9.25
2023-03-06T10:17:11.239Z,18.30
2023-03-06T10:19:42.241Z,12.88
2023-03-06T10:22:30.750Z,22.30
2023-03-06T10:25:10.469Z,13.38
2023-03-06T10:27:51.185Z,15.82
2023-03-06T10:30:31.204Z,19.90
2023-03-06T10:33:02.084Z,17.00
2023-03-06T10:35:40.646Z,17.30
2023-03-06T10:38:23.424Z,15.60
2023-03-06T10:41:21.048Z,17.23
2023-03-06T10:44:18.530Z,13.27
2023-03-06T10:49:14.163Z,16.67
2023-03-06T10:51:56.256Z,13.90
2023-03-06T10:54:23.720Z,15.27
2023-03-06T10:56:50.908Z,14.82
2023-03-06T10:59:22.926Z,16.20
2023-03-06T11:01:53.986Z,18.92
2023-03-06T11:04:21.802Z,13.48
2023-03-06T11:09:23.387Z,15.40
2023-03-06T11:11:51.361Z,13.30
2023-03-06T11:14:22.908Z,17.00
2023-03-06T11:16:53.426Z,16.70
2023-03-06T11:19:29.674Z,18.63
2023-03-06T11:22:07.027Z,21.73
2023-03-06T11:24:42.306Z,16.65
2023-03-06T11:27:34.854Z,18.92
2023-03-06T11:30:34.949Z,20.02
2023-03-06T11:33:11.229Z,16.17
2023-03-06T11:35:49.554Z,27.10
2023-03-06T11:38:34.252Z,24.92
2023-03-06T11:41:05.866Z,22.23
2023-03-06T11:44:02.581Z,23.02
2023-03-06T11:46:43.946Z,15.23
2023-03-06T11:49:25.671Z,16.70
2023-03-06T11:51:56.327Z,18.88
2023-03-06T11:54:23.751Z,20.83
2023-03-06T11:57:12.448Z,19.55
2023-03-06T11:59:51.635Z,21.65
2023-03-06T12:02:25.673Z,19.00
2023-03-06T12:05:30.726Z,18.05
2023-03-06T12:08:17.441Z,16.38
2023-03-06T12:10:57.369Z,17.88
2023-03-06T12:14:04.077Z,19.05
2023-03-06T12:16:53.479Z,17.02
2023-03-06T12:19:42.466Z,20.92
2023-03-06T12:22:29.616Z,22.30
2023-03-06T12:25:19.637Z,21.77
2023-03-06T12:28:11.484Z,16.95
2023-03-06T12:31:16.658Z,18.55
2023-03-06T12:34:10.036Z,20.52
2023-03-06T12:36:55.515Z,16.92
2023-03-06T12:39:55.881Z,26.25
2023-03-06T12:42:35.942Z,16.35
2023-03-06T12:45:21.912Z,18.83
2023-03-06T12:48:01.211Z,12.43
2023-03-06T12:50:38.161Z,17.63
2023-03-06T12:53:32.303Z,17.42
2023-03-06T12:56:02.072Z,18.80
2023-03-06T12:58:30.844Z,15.95
2023-03-06T13:01:20.062Z,8.18
2023-03-06T13:04:08.162Z,16.42
2023-03-06T13:06:51.229Z,14.55
2023-03-06T13:09:29.182Z,15.95
2023-03-06T13:14:48.632Z,13.32
2023-03-06T13:17:30.492Z,13.50
2023-03-06T13:20:43.268Z,16.30
2023-03-06T13:23:29.114Z,12.02
2023-03-06T13:26:01.980Z,15.55
2023-03-06T13:28:50.360Z,11.65
2023-03-06T13:31:28.272Z,11.98
2023-03-06T13:34:00.826Z,10.02
2023-03-06T13:36:34.424Z,19.67
2023-03-06T13:39:05.731Z,12.85
2023-03-06T13:41:43.144Z,18.45
2023-03-06T13:44:32.231Z,10.30
2023-03-06T13:47:08.411Z,15.10
2023-03-06T13:49:49.462Z,10.80
2023-03-06T13:52:35.487Z,13.13
2023-03-06T13:55:41.728Z,10.60
2023-03-06T13:58:48.738Z,16.52
2023-03-06T14:01:36.083Z,14.35
2023-03-06T14:05:08.021Z,14.30
2023-03-06T14:07:43.697Z,18.67
2023-03-06T14:10:15.126Z,13.98
2023-03-06T14:12:59.848Z,17.33
2023-03-06T14:15:31.922Z,15.65
2023-03-06T14:18:23.583Z,16.33
2023-03-06T14:20:55.360Z,13.02
2023-03-06T14:23:43.408Z,13.13
2023-03-06T14:26:24.670Z,21.70
2023-03-06T14:28:52.043Z,16.52
2023-03-06T14:31:33.890Z,15.68
2023-03-06T14:34:05.208Z,15.77
2023-03-06T14:36:57.996Z,15.77
2023-03-06T14:39:47.120Z,18.05
2023-03-06T14:42:29.389Z,19.38
2023-03-06T14:45:22.660Z,13.50
2023-03-06T14:47:51.417Z,13.18
2023-03-06T14:50:29.552Z,13.52
2023-03-06T14:53:48.264Z,10.55
2023-03-06T14:56:24.196Z,12.38
2023-03-06T14:58:57.164Z,13.90
2023-03-06T15:01:48.344Z,15.15
2023-03-06T15:04:29.255Z,12.18
2023-03-06T15:06:57.846Z,8.95
2023-03-06T15:09:32.234Z,13.98
2023-03-06T15:12:07.983Z,10.63
2023-03-06T15:14:45.198Z,9.73
2023-03-06T15:17:46.337Z,7.60
2023-03-06T15:20:57.094Z,8.45
2023-03-06T15:23:34.594Z,14.98
2023-03-06T15:26:19.234Z,13.85
2023-03-06T15:29:07.005Z,8.10
2023-03-06T15:31:40.950Z,8.25
2023-03-06T15:34:09.223Z,8.20
2023-03-06T15:36:47.441Z,13.63
2023-03-06T15:39:34.700Z,9.05
2023-03-06T15:42:08.206Z,16.02
2023-03-06T15:44:38.212Z,14.77
2023-03-06T15:47:09.282Z,8.68
2023-03-06T15:49:38.765Z,13.25
2023-03-06T15:52:09.454Z,8.13
2023-03-06T15:54:39.647Z,8.98
2023-03-06T15:57:13.980Z,7.93
2023-03-06T15:59:43.831Z,8.40
2023-03-06T16:02:15.877Z,9.70
2023-03-06T16:04:44.118Z,8.68
2023-03-06T16:07:12.209Z,13.70
2023-03-06T16:09:40.720Z,13.63
2023-03-06T16:12:15.111Z,14.60
2023-03-06T16:14:42.416Z,10.80
2023-03-06T16:17:12.306Z,9.70
2023-03-06T16:19:42.642Z,11.40
2023-03-06T16:22:10.297Z,11.50
2023-03-06T16:24:37.628Z,7.72
2023-03-06T16:27:07.956Z,12.23
2023-03-06T16:29:35.630Z,8.25
2023-03-06T16:34:42.298Z,14.05
2023-03-06T16:37:16.068Z,11.30
2023-03-06T16:39:45.803Z,7.82
2023-03-06T16:42:13.039Z,4.93
2023-03-06T16:44:45.882Z,6.93
2023-03-06T16:47:18.741Z,4.65
2023-03-06T16:49:46.128Z,6.15
2023-03-06T16:52:14.622Z,8.85
2023-03-06T16:54:44.533Z,9.60
2023-03-06T16:57:17.470Z,12.73
2023-03-06T16:59:50.493Z,10.00
2023-03-06T17:02:17.650Z,7.63
2023-03-06T17:04:44.980Z,16.20
2023-03-06T17:07:13.020Z,11.85
2023-03-06T17:09:40.077Z,4.82
2023-03-06T17:12:10.188Z,7.40
2023-03-06T17:14:40.892Z,5.85
2023-03-06T17:17:08.046Z,6.85
2023-03-06T17:19:35.277Z,9.95
2023-03-06T17:22:05.078Z,9.98
2023-03-06T17:24:35.415Z,17.23
2023-03-06T17:27:02.550Z,14.35
2023-03-06T17:29:32.059Z,10.98
2023-03-06T17:32:00.029Z,15.15
2023-03-06T17:34:27.824Z,11.75
2023-03-06T17:39:25.104Z,11.27
2023-03-06T17:41:56.665Z,8.05
2023-03-06T17:44:34.430Z,18.52
2023-03-06T17:47:02.901Z,14.13
2023-03-06T17:49:32.439Z,8.23
2023-03-06T17:52:07.086Z,14.93
2023-03-06T17:54:34.574Z,13.68
2023-03-06T17:57:03.709Z,16.30
2023-03-06T17:59:34.419Z,12.80
2023-03-06T18:02:02.652Z,12.20
2023-03-06T18:04:38.945Z,11.75
2023-03-06T18:07:13.663Z,11.65
2023-03-06T18:09:50.266Z,14.68
2023-03-06T18:12:20.081Z,12.25
2023-03-06T18:14:48.731Z,10.68
2023-03-06T18:17:16.692Z,15.77
2023-03-06T18:19:49.609Z,14.60
2023-03-06T18:22:28.335Z,13.32
2023-03-06T18:24:58.528Z,17.15
2023-03-06T18:27:27.377Z,16.30
2023-03-06T18:29:55.786Z,18.90
2023-03-06T18:32:23.236Z,14.82
2023-03-06T18:34:55.281Z,12.98
2023-03-06T18:37:24.686Z,13.88
2023-03-06T18:40:15.634Z,8.25
2023-03-06T18:42:45.907Z,15.85
2023-03-06T18:45:16.493Z,11.32
2023-03-06T18:47:43.836Z,15.93
2023-03-06T18:50:16.499Z,13.13
2023-03-06T18:52:44.472Z,12.45
2023-03-06T18:55:15.613Z,19.50
2023-03-06T18:57:42.861Z,11.95
2023-03-06T19:00:10.799Z,14.35
2023-03-06T19:02:37.998Z,14.95
2023-03-06T19:05:05.498Z,14.43
2023-03-06T19:07:32.768Z,12.88
2023-03-06T19:09:59.848Z,9.68
2023-03-06T19:12:27.100Z,16.52
2023-03-06T19:14:54.329Z,22.45
2023-03-06T19:17:24.882Z,13.35
2023-03-06T19:19:53.264Z,12.88
2023-03-06T19:22:20.692Z,21.27
2023-03-06T19:24:50.181Z,15.70
2023-03-06T19:27:17.512Z,30.80
2023-03-06T19:29:44.705Z,25.88
2023-03-06T19:32:11.960Z,14.88
2023-03-06T19:34:40.082Z,17.08
2023-03-06T19:37:08.479Z,14.13
2023-03-06T19:39:35.648Z,13.15
2023-03-06T19:42:04.667Z,12.50
2023-03-06T19:44:31.933Z,12.80
2023-03-06T19:46:59.164Z,22.23
2023-03-06T19:49:26.644Z,18.38
2023-03-06T19:51:56.019Z,16.40
2023-03-06T19:54:26.855Z,14.05
2023-03-06T19:56:54.224Z,21.75
2023-03-06T19:59:21.606Z,16.35
2023-03-06T20:01:49.087Z,21.08
2023-03-06T20:04:17.054Z,20.13
2023-03-06T20:06:46.678Z,13.10
2023-03-06T20:09:14.120Z,14.68
2023-03-06T20:11:41.371Z,10.65
2023-03-06T20:14:10.454Z,18.65
2023-03-06T20:16:38.172Z,14.77
2023-03-06T20:19:06.157Z,14.15
2023-03-06T20:21:37.664Z,15.73
2023-03-06T20:24:07.110Z,14.20
2023-03-06T20:26:36.694Z,12.68
2023-03-06T20:29:03.930Z,17.02
2023-03-06T20:31:31.192Z,11.50
2023-03-06T20:33:59.470Z,12.43
2023-03-06T20:36:30.676Z,15.40
2023-03-06T20:39:01.897Z,15.02
2023-03-06T20:41:31.077Z,17.10
2023-03-06T20:44:00.414Z,15.75
2023-03-06T20:46:29.878Z,21.55
2023-03-06T20:48:58.286Z,21.17
2023-03-06T20:51:31.793Z,15.93
2023-03-06T20:54:10.086Z,11.65
2023-03-06T20:56:39.579Z,19.75
2023-03-06T20:59:11.982Z,12.38
2023-03-06T21:01:43.105Z,15.10
2023-03-06T21:04:20.425Z,21.75
2023-03-06T21:06:47.656Z,17.17
2023-03-06T21:09:25.943Z,18.48
2023-03-06T21:11:53.041Z,12.80
2023-03-06T21:14:20.231Z,12.82
2023-03-06T21:16:47.463Z,12.77
2023-03-06T21:19:17.236Z,14.75
2023-03-06T21:21:44.297Z,18.50
2023-03-06T21:24:11.429Z,21.17
2023-03-06T21:26:40.964Z,11.07
2023-03-06T21:29:09.150Z,19.65
2023-03-06T21:31:36.924Z,11.88
2023-03-06T21:36:35.812Z,10.68
2023-03-06T21:39:06.457Z,16.25
2023-03-06T21:41:34.137Z,14.48
2023-03-06T21:44:04.497Z,14.07
2023-03-06T21:46:32.508Z,13.80
2023-03-06T21:49:01.674Z,14.10
2023-03-06T21:51:29.008Z,24.60
2023-03-06T21:53:56.317Z,15.05
2023-03-06T21:56:25.403Z,18.50
2023-03-06T21:58:52.980Z,21.67
2023-03-06T22:01:26.790Z,18.65
2023-03-06T22:03:54.463Z,12.95
2023-03-06T22:06:27.784Z,13.93
2023-03-06T22:08:56.686Z,14.27
2023-03-06T22:11:25.514Z,16.42
2023-03-06T22:13:55.743Z,16.60
2023-03-06T22:16:22.930Z,16.02
2023-03-06T22:18:51.573Z,18.55
2023-03-06T22:21:22.250Z,10.98
2023-03-06T22:23:51.507Z,14.38
2023-03-06T22:26:22.592Z,9.85
2023-03-06T22:28:51.342Z,12.23
2023-03-06T22:31:25.161Z,15.90
2023-03-06T22:33:54.025Z,16.92
2023-03-06T22:36:25.251Z,12.65
2023-03-06T22:39:09.131Z,9.48
2023-03-06T22:41:39.893Z,10.43
2023-03-06T22:44:07.264Z,14.38
2023-03-06T22:46:34.527Z,15.07
2023-03-06T22:49:02.309Z,14.35
2023-03-06T22:51:29.729Z,18.42
2023-03-06T22:53:57.068Z,13.32
2023-03-06T22:56:27.677Z,11.30
2023-03-06T22:58:57.790Z,18.15
2023-03-06T23:01:28.048Z,12.65
2023-03-06T23:04:11.026Z,20.30
2023-03-06T23:06:46.364Z,16.88
2023-03-06T23:09:23.197Z,15.25
2023-03-06T23:12:12.092Z,25.67
2023-03-06T23:15:00.058Z,27.80
2023-03-06T23:17:54.581Z,14.15
2023-03-06T23:20:47.155Z,9.93
2023-03-06T23:23:37.175Z,14.20
2023-03-06T23:26:10.933Z,11.80
2023-03-06T23:28:38.991Z,18.40
2023-03-06T23:31:19.023Z,15.25
2023-03-06T23:33:46.347Z,12.20
2023-03-06T23:36:18.214Z,20.27
2023-03-06T23:38:45.802Z,16.10
2023-03-06T23:41:15.716Z,19.17
2023-03-06T23:43:43.235Z,18.88
2023-03-06T23:46:13.502Z,17.30
2023-03-06T23:48:42.327Z,22.05
2023-03-06T23:51:22.925Z,16.23
2023-03-06T23:54:00.638Z,21.60
2023-03-06T23:59:08.539Z,15.75
